Time;durP1;ratioP1;P1;durP2;ratioP2;P2;SDS_P1;SDS_P2;PMS_P1;PMS_P2;Temp;Humidity;BMP_temperature;BMP_pressure;BME280_temperature;BME280_humidity;BME280_pressure;Samples;Min_cycle;Max_cycle;Signal;HPM_P1;HPM_P2
2022/08/28 00:01:14;;;;;;;12.18;6.82;;;;;;;;;;4919703;29;20034;-76
2022/08/28 00:03:40;;;;;;;13.98;7.05;;;;;;;;;;4933543;29;20043;-78
2022/08/28 00:06:06;;;;;;;11.30;7.20;;;;;;;;;;4915980;29;20170;-75
2022/08/28 00:08:31;;;;;;;8.48;6.35;;;;;;;;;;4912666;29;20122;-75
2022/08/28 00:10:57;;;;;;;14.65;6.75;;;;;;;;;;4935430;29;20023;-75
2022/08/28 00:13:24;;;;;;;12.65;6.68;;;;;;;;;;4952829;29;20102;-76
2022/08/28 00:15:54;;;;;;;10.88;6.53;;;;;;;;;;4921110;29;20031;-75
2022/08/28 00:18:20;;;;;;;10.00;7.10;;;;;;;;;;4916673;29;20048;-76
2022/08/28 00:20:46;;;;;;;11.27;6.55;;;;;;;;;;4934384;29;20394;-75
2022/08/28 00:23:11;;;;;;;12.50;7.53;;;;;;;;;;4939376;29;20047;-76
2022/08/28 00:25:37;;;;;;;9.60;6.65;;;;;;;;;;4918531;29;20031;-76
2022/08/28 00:28:03;;;;;;;10.65;6.78;;;;;;;;;;4917553;29;20048;-75
2022/08/28 00:30:30;;;;;;;11.77;6.93;;;;;;;;;;4934615;29;20030;-75
2022/08/28 00:32:57;;;;;;;10.10;6.50;;;;;;;;;;4925804;29;20140;-75
2022/08/28 00:35:23;;;;;;;12.30;7.60;;;;;;;;;;4953843;28;20031;-76
2022/08/28 00:37:49;;;;;;;14.20;6.97;;;;;;;;;;4938030;29;20023;-76
2022/08/28 00:40:15;;;;;;;12.60;6.95;;;;;;;;;;4928501;29;20083;-75
2022/08/28 00:42:41;;;;;;;11.68;6.85;;;;;;;;;;4916862;29;20044;-75
2022/08/28 00:45:07;;;;;;;14.15;7.20;;;;;;;;;;4939951;29;20059;-75
2022/08/28 00:47:33;;;;;;;16.83;6.65;;;;;;;;;;4955788;28;20554;-75
2022/08/28 00:49:59;;;;;;;11.02;7.15;;;;;;;;;;4919654;29;20027;-75
2022/08/28 00:52:25;;;;;;;15.63;7.30;;;;;;;;;;4938433;29;20102;-76
2022/08/28 00:54:55;;;;;;;12.45;6.82;;;;;;;;;;4938797;29;20482;-75
2022/08/28 00:57:22;;;;;;;12.77;6.95;;;;;;;;;;4938521;29;20043;-75
2022/08/28 00:59:47;;;;;;;10.27;7.15;;;;;;;;;;4936781;29;20051;-75
2022/08/28 01:02:13;;;;;;;12.48;7.32;;;;;;;;;;4954351;29;20074;-75
2022/08/28 01:04:38;;;;;;;12.98;7.20;;;;;;;;;;4955156;29;20035;-76
2022/08/28 01:07:05;;;;;;;14.23;6.95;;;;;;;;;;4937747;29;20462;-74
2022/08/28 01:09:31;;;;;;;14.68;7.07;;;;;;;;;;4937885;29;20027;-75
2022/08/28 01:11:57;;;;;;;10.80;6.60;;;;;;;;;;4937949;29;20094;-75
2022/08/28 01:14:23;;;;;;;14.85;7.10;;;;;;;;;;4918693;29;20650;-75
2022/08/28 01:16:51;;;;;;;11.40;6.50;;;;;;;;;;4951174;29;20066;-74
2022/08/28 01:19:19;;;;;;;12.63;6.93;;;;;;;;;;4922201;29;20395;-74
2022/08/28 01:21:47;;;;;;;12.60;7.30;;;;;;;;;;4953465;29;20042;-75
2022/08/28 01:24:13;;;;;;;13.50;6.78;;;;;;;;;;4928471;29;20023;-74
2022/08/28 01:26:39;;;;;;;9.80;6.88;;;;;;;;;;4953740;29;20046;-76
2022/08/28 01:29:07;;;;;;;12.82;6.90;;;;;;;;;;4934556;29;20510;-74
2022/08/28 01:31:32;;;;;;;12.38;7.25;;;;;;;;;;4934304;28;20106;-75
2022/08/28 01:33:58;;;;;;;15.65;7.13;;;;;;;;;;4921990;29;20577;-75
2022/08/28 01:36:24;;;;;;;12.55;6.88;;;;;;;;;;4951667;29;20103;-75
2022/08/28 01:38:51;;;;;;;15.10;7.07;;;;;;;;;;4955106;29;20028;-75
2022/08/28 01:41:17;;;;;;;16.73;7.20;;;;;;;;;;4935232;29;20036;-75
2022/08/28 01:43:43;;;;;;;15.95;7.28;;;;;;;;;;4937308;29;20058;-76
2022/08/28 01:46:09;;;;;;;13.73;6.82;;;;;;;;;;4921124;28;20080;-74
2022/08/28 01:48:35;;;;;;;14.52;6.93;;;;;;;;;;4937425;29;20149;-77
2022/08/28 01:51:01;;;;;;;11.30;6.82;;;;;;;;;;4935818;29;20047;-75
2022/08/28 01:53:26;;;;;;;14.57;7.90;;;;;;;;;;4946763;29;20035;-75
2022/08/28 01:55:52;;;;;;;12.32;7.18;;;;;;;;;;4912850;29;20515;-75
2022/08/28 01:58:18;;;;;;;14.10;7.78;;;;;;;;;;4937577;29;20408;-76
2022/08/28 02:00:44;;;;;;;13.57;7.80;;;;;;;;;;4954453;29;20035;-75
2022/08/28 02:03:09;;;;;;;12.90;7.22;;;;;;;;;;4937096;29;20078;-75
2022/08/28 02:05:35;;;;;;;12.63;7.30;;;;;;;;;;4937128;29;20050;-74
2022/08/28 02:08:01;;;;;;;15.57;7.25;;;;;;;;;;4918009;29;20031;-75
2022/08/28 02:10:29;;;;;;;13.63;7.28;;;;;;;;;;4931037;29;20035;-75
2022/08/28 02:12:55;;;;;;;11.85;7.25;;;;;;;;;;4954319;29;20023;-74
2022/08/28 02:15:21;;;;;;;17.73;7.60;;;;;;;;;;4916392;29;20100;-75
2022/08/28 02:17:46;;;;;;;11.65;7.43;;;;;;;;;;4934498;29;20037;-74
2022/08/28 02:20:12;;;;;;;11.60;7.35;;;;;;;;;;4930901;28;20062;-74
2022/08/28 02:22:37;;;;;;;12.20;7.38;;;;;;;;;;4953746;29;20054;-75
2022/08/28 02:25:03;;;;;;;15.35;7.93;;;;;;;;;;4933461;29;20468;-76
2022/08/28 02:27:29;;;;;;;15.82;7.78;;;;;;;;;;4936640;29;20498;-75
2022/08/28 02:29:56;;;;;;;15.18;7.53;;;;;;;;;;4954107;29;20039;-75
2022/08/28 02:32:22;;;;;;;10.90;7.28;;;;;;;;;;4950644;29;20398;-75
2022/08/28 02:34:47;;;;;;;15.27;7.15;;;;;;;;;;4952081;29;20042;-75
2022/08/28 02:37:13;;;;;;;11.15;7.43;;;;;;;;;;4947698;29;20043;-75
2022/08/28 02:39:39;;;;;;;18.73;7.90;;;;;;;;;;4939238;29;20035;-76
2022/08/28 02:42:05;;;;;;;12.98;7.88;;;;;;;;;;4913188;29;20020;-75
2022/08/28 02:44:31;;;;;;;16.73;7.80;;;;;;;;;;4930387;29;20058;-76
2022/08/28 02:46:56;;;;;;;14.48;7.20;;;;;;;;;;4950967;29;20522;-75
2022/08/28 02:49:22;;;;;;;11.73;7.15;;;;;;;;;;4916824;29;20042;-75
2022/08/28 02:51:48;;;;;;;12.10;7.75;;;;;;;;;;4952067;28;20114;-76
2022/08/28 02:54:14;;;;;;;11.18;7.70;;;;;;;;;;4925096;29;20700;-76
2022/08/28 02:56:39;;;;;;;13.38;7.93;;;;;;;;;;4935989;28;20031;-75
2022/08/28 02:59:05;;;;;;;15.65;10.18;;;;;;;;;;4952668;29;20038;-75
2022/08/28 03:01:30;;;;;;;14.68;8.63;;;;;;;;;;4936206;29;20387;-75
2022/08/28 03:03:56;;;;;;;15.02;7.10;;;;;;;;;;4952948;29;20094;-75
2022/08/28 03:06:22;;;;;;;15.18;7.82;;;;;;;;;;4904256;29;20035;-76
2022/08/28 03:08:47;;;;;;;12.52;7.65;;;;;;;;;;4933010;29;20040;-74
2022/08/28 03:11:13;;;;;;;13.45;7.53;;;;;;;;;;4952850;29;20043;-75
2022/08/28 03:13:39;;;;;;;12.93;7.70;;;;;;;;;;4936306;29;20813;-75
2022/08/28 03:16:05;;;;;;;12.48;8.15;;;;;;;;;;4920067;29;20055;-75
2022/08/28 03:18:31;;;;;;;16.15;8.45;;;;;;;;;;4935822;29;20045;-76
2022/08/28 03:20:57;;;;;;;17.92;7.90;;;;;;;;;;4935758;29;20523;-75
2022/08/28 03:23:26;;;;;;;13.35;7.50;;;;;;;;;;4920114;29;20118;-75
2022/08/28 03:26:03;;;;;;;14.43;7.72;;;;;;;;;;4931290;29;20038;-74
2022/08/28 03:28:30;;;;;;;18.90;8.07;;;;;;;;;;4947229;29;20044;-76
2022/08/28 03:30:56;;;;;;;11.98;7.43;;;;;;;;;;4951884;29;20023;-76
2022/08/28 03:33:22;;;;;;;10.23;7.40;;;;;;;;;;4951533;29;20468;-76
2022/08/28 03:35:47;;;;;;;15.18;7.88;;;;;;;;;;4953067;29;20110;-76
2022/08/28 03:38:13;;;;;;;12.07;7.85;;;;;;;;;;4952723;28;20463;-75
2022/08/28 03:40:41;;;;;;;14.88;8.15;;;;;;;;;;4936047;29;20139;-76
2022/08/28 03:43:08;;;;;;;12.60;8.00;;;;;;;;;;4936038;29;20043;-75
2022/08/28 03:45:33;;;;;;;17.58;7.90;;;;;;;;;;4936079;29;20111;-76
2022/08/28 03:47:59;;;;;;;15.15;7.78;;;;;;;;;;4925167;29;20067;-74
2022/08/28 03:50:24;;;;;;;17.25;7.28;;;;;;;;;;4932579;29;20111;-76
2022/08/28 03:52:50;;;;;;;15.25;7.55;;;;;;;;;;4931677;29;20589;-76
2022/08/28 03:55:17;;;;;;;14.93;7.07;;;;;;;;;;4929763;29;20023;-76
2022/08/28 03:57:43;;;;;;;12.38;7.38;;;;;;;;;;4948743;28;20047;-74
2022/08/28 04:00:10;;;;;;;16.00;7.05;;;;;;;;;;4932568;29;20027;-76
2022/08/28 04:02:41;;;;;;;13.80;7.20;;;;;;;;;;4948172;29;20035;-77
2022/08/28 04:05:07;;;;;;;13.77;7.35;;;;;;;;;;4953067;29;20031;-75
2022/08/28 04:07:33;;;;;;;13.45;7.10;;;;;;;;;;4935747;29;20752;-75
2022/08/28 04:09:59;;;;;;;17.02;7.20;;;;;;;;;;4938957;29;20117;-74
2022/08/28 04:12:24;;;;;;;13.43;7.20;;;;;;;;;;4936414;29;20146;-75
2022/08/28 04:14:50;;;;;;;13.70;7.22;;;;;;;;;;4924549;29;20124;-75
2022/08/28 04:17:15;;;;;;;11.75;7.22;;;;;;;;;;4936299;29;20411;-75
2022/08/28 04:19:43;;;;;;;13.88;7.20;;;;;;;;;;4956233;29;20090;-79
2022/08/28 04:22:09;;;;;;;11.65;7.38;;;;;;;;;;4942338;29;20019;-82
2022/08/28 04:24:34;;;;;;;13.57;7.72;;;;;;;;;;4937530;29;20046;-79
2022/08/28 04:27:00;;;;;;;15.40;7.13;;;;;;;;;;4922013;29;20430;-80
2022/08/28 04:29:25;;;;;;;11.63;7.43;;;;;;;;;;4957864;29;20051;-80
2022/08/28 04:31:51;;;;;;;11.23;6.65;;;;;;;;;;4955813;29;20027;-79
2022/08/28 04:34:16;;;;;;;11.60;6.93;;;;;;;;;;4938594;29;20529;-79
2022/08/28 04:36:42;;;;;;;14.90;7.18;;;;;;;;;;4914875;29;20069;-82
2022/08/28 04:39:09;;;;;;;16.63;7.25;;;;;;;;;;4956624;29;20031;-81
2022/08/28 04:41:38;;;;;;;12.48;7.40;;;;;;;;;;4939318;29;20031;-80
2022/08/28 04:44:04;;;;;;;13.43;6.97;;;;;;;;;;4941947;29;20418;-79
2022/08/28 04:46:29;;;;;;;12.40;6.78;;;;;;;;;;4914403;29;20038;-80
2022/08/28 04:48:55;;;;;;;10.93;6.43;;;;;;;;;;4933136;29;20044;-80
2022/08/28 04:51:21;;;;;;;14.88;7.53;;;;;;;;;;4937524;29;20517;-79
2022/08/28 04:53:47;;;;;;;15.35;6.70;;;;;;;;;;4927784;29;20039;-79
2022/08/28 04:56:12;;;;;;;16.05;6.97;;;;;;;;;;4935936;29;20520;-80
2022/08/28 04:58:38;;;;;;;13.05;6.85;;;;;;;;;;4939772;29;20773;-82
2022/08/28 05:01:04;;;;;;;13.65;7.57;;;;;;;;;;4926788;29;20061;-81
2022/08/28 05:03:31;;;;;;;13.13;7.32;;;;;;;;;;4921021;29;20035;-80
2022/08/28 05:05:56;;;;;;;13.60;6.60;;;;;;;;;;4936586;29;20034;-79
2022/08/28 05:08:22;;;;;;;13.18;6.70;;;;;;;;;;4957095;28;20407;-81
2022/08/28 05:10:48;;;;;;;12.95;6.97;;;;;;;;;;4957575;29;20031;-81
2022/08/28 05:13:17;;;;;;;11.82;6.88;;;;;;;;;;4956902;29;20078;-79
2022/08/28 05:15:43;;;;;;;11.45;7.25;;;;;;;;;;4923639;29;20086;-80
2022/08/28 05:18:09;;;;;;;13.30;6.93;;;;;;;;;;4936884;29;20095;-80
2022/08/28 05:20:35;;;;;;;11.98;7.10;;;;;;;;;;4921675;29;20538;-80
2022/08/28 05:23:01;;;;;;;15.75;6.82;;;;;;;;;;4957709;28;20038;-78
2022/08/28 05:25:27;;;;;;;14.05;6.70;;;;;;;;;;4936027;29;20020;-80
2022/08/28 05:27:52;;;;;;;12.18;7.40;;;;;;;;;;4919663;29;20212;-81
2022/08/28 05:30:19;;;;;;;11.35;6.90;;;;;;;;;;4955080;29;20403;-81
2022/08/28 05:32:45;;;;;;;15.38;7.10;;;;;;;;;;4940078;29;20059;-80
2022/08/28 05:35:11;;;;;;;13.50;6.88;;;;;;;;;;4941899;29;20023;-81
2022/08/28 05:37:36;;;;;;;11.73;7.07;;;;;;;;;;4957731;29;20039;-82
2022/08/28 05:40:02;;;;;;;13.93;7.22;;;;;;;;;;4942021;29;20432;-81
2022/08/28 05:42:28;;;;;;;17.23;8.07;;;;;;;;;;4925148;29;20058;-80
2022/08/28 05:44:53;;;;;;;13.98;8.38;;;;;;;;;;4911155;29;20534;-83
2022/08/28 05:47:19;;;;;;;15.15;7.05;;;;;;;;;;4940938;29;20414;-79
2022/08/28 05:49:45;;;;;;;15.98;7.47;;;;;;;;;;4957852;29;20039;-80
2022/08/28 05:52:11;;;;;;;15.73;7.30;;;;;;;;;;4957980;29;20047;-80
2022/08/28 05:54:36;;;;;;;16.80;7.43;;;;;;;;;;4939086;29;20078;-80
2022/08/28 05:57:02;;;;;;;14.52;7.45;;;;;;;;;;4933444;29;20511;-81
2022/08/28 05:59:28;;;;;;;18.60;8.30;;;;;;;;;;4921163;29;20019;-79
2022/08/28 06:01:53;;;;;;;15.18;7.43;;;;;;;;;;4951419;29;20051;-80
2022/08/28 06:04:22;;;;;;;18.75;8.52;;;;;;;;;;4953307;29;20034;-80
2022/08/28 06:06:48;;;;;;;16.05;8.15;;;;;;;;;;4952080;29;20435;-81
2022/08/28 06:09:14;;;;;;;12.88;8.07;;;;;;;;;;4936949;29;20410;-80
2022/08/28 06:11:40;;;;;;;12.75;8.50;;;;;;;;;;4955159;29;20039;-80
2022/08/28 06:14:09;;;;;;;18.10;8.57;;;;;;;;;;4938595;29;20042;-79
2022/08/28 06:16:39;;;;;;;14.73;8.30;;;;;;;;;;4936180;29;20032;-80
2022/08/28 06:19:04;;;;;;;21.13;8.52;;;;;;;;;;4932349;29;20394;-80
2022/08/28 06:21:32;;;;;;;17.70;8.88;;;;;;;;;;4939103;29;20039;-82
2022/08/28 06:23:57;;;;;;;14.40;8.95;;;;;;;;;;4921688;29;20427;-80
2022/08/28 06:26:23;;;;;;;16.88;8.65;;;;;;;;;;4951937;29;20050;-80
2022/08/28 06:28:48;;;;;;;14.18;8.10;;;;;;;;;;4921186;29;20078;-80
2022/08/28 06:31:14;;;;;;;14.43;8.95;;;;;;;;;;4936095;29;20142;-79
2022/08/28 06:33:41;;;;;;;13.55;8.27;;;;;;;;;;4938443;29;20105;-81
2022/08/28 06:36:06;;;;;;;14.00;8.30;;;;;;;;;;4938372;29;20086;-79
2022/08/28 06:38:32;;;;;;;15.82;10.43;;;;;;;;;;4939381;29;20375;-81
2022/08/28 06:40:58;;;;;;;17.40;9.38;;;;;;;;;;4940831;29;20077;-81
2022/08/28 06:43:25;;;;;;;14.25;8.13;;;;;;;;;;4939689;29;20051;-82
2022/08/28 06:45:53;;;;;;;15.98;7.93;;;;;;;;;;4926159;29;20035;-81
2022/08/28 06:48:19;;;;;;;14.15;7.22;;;;;;;;;;4937646;29;20039;-79
2022/08/28 06:50:46;;;;;;;11.38;7.40;;;;;;;;;;4957083;28;20035;-80
2022/08/28 06:53:13;;;;;;;16.92;7.32;;;;;;;;;;4922254;29;20034;-80
2022/08/28 06:55:38;;;;;;;13.32;8.43;;;;;;;;;;4920462;29;20032;-81
2022/08/28 06:58:04;;;;;;;10.73;6.82;;;;;;;;;;4955490;29;20027;-80
2022/08/28 07:00:29;;;;;;;16.42;7.13;;;;;;;;;;4956334;29;20505;-80
2022/08/28 07:02:55;;;;;;;11.38;6.80;;;;;;;;;;4920578;29;20024;-80
2022/08/28 07:05:21;;;;;;;13.18;6.45;;;;;;;;;;4940036;29;20046;-79
2022/08/28 07:07:47;;;;;;;12.73;5.57;;;;;;;;;;4957018;29;20026;-80
2022/08/28 07:10:12;;;;;;;10.68;5.85;;;;;;;;;;4920311;29;20447;-81
2022/08/28 07:12:39;;;;;;;12.43;6.90;;;;;;;;;;4954700;29;20027;-82
2022/08/28 07:15:05;;;;;;;10.90;7.50;;;;;;;;;;4936738;29;20047;-79
2022/08/28 07:17:31;;;;;;;11.02;7.10;;;;;;;;;;4922432;29;20059;-79
2022/08/28 07:19:57;;;;;;;9.10;5.82;;;;;;;;;;4939331;29;20043;-79
2022/08/28 07:22:22;;;;;;;12.15;6.22;;;;;;;;;;4937964;29;20035;-78
2022/08/28 07:24:48;;;;;;;16.05;6.53;;;;;;;;;;4954949;29;20031;-80
2022/08/28 07:27:13;;;;;;;14.75;5.95;;;;;;;;;;4952421;29;20031;-77
2022/08/28 07:29:39;;;;;;;18.10;6.35;;;;;;;;;;4937279;29;20190;-77
2022/08/28 07:32:05;;;;;;;11.90;6.53;;;;;;;;;;4937694;29;20042;-78
2022/08/28 07:34:30;;;;;;;13.30;6.85;;;;;;;;;;4950775;29;20053;-78
2022/08/28 07:37:02;;;;;;;12.52;6.40;;;;;;;;;;4950724;29;20019;-78
2022/08/28 07:39:28;;;;;;;9.45;5.63;;;;;;;;;;4918773;29;20582;-77
2022/08/28 07:41:53;;;;;;;12.70;5.28;;;;;;;;;;4936424;29;20065;-77
2022/08/28 07:47:04;;;;;;;11.88;5.80;;;;;;;;;;4957734;29;20046;-78
2022/08/28 07:49:30;;;;;;;14.60;6.63;;;;;;;;;;4925503;29;20059;-79
2022/08/28 07:51:55;;;;;;;12.65;6.82;;;;;;;;;;4922559;29;20086;-79
2022/08/28 07:54:21;;;;;;;11.10;5.10;;;;;;;;;;4936249;29;20023;-78
2022/08/28 07:56:47;;;;;;;13.52;6.20;;;;;;;;;;4965469;28;20039;-79
2022/08/28 07:59:13;;;;;;;14.32;5.85;;;;;;;;;;4932914;28;20041;-78
2022/08/28 08:01:39;;;;;;;11.27;5.10;;;;;;;;;;4958012;29;20067;-78
2022/08/28 08:04:08;;;;;;;10.95;5.35;;;;;;;;;;4948684;28;20430;-80
2022/08/28 08:06:34;;;;;;;11.13;5.32;;;;;;;;;;4925539;29;20126;-77
2022/08/28 08:09:00;;;;;;;12.88;5.25;;;;;;;;;;4941066;29;20062;-78
2022/08/28 08:11:26;;;;;;;8.40;4.50;;;;;;;;;;4957929;28;20035;-80
2022/08/28 08:13:53;;;;;;;15.35;5.72;;;;;;;;;;4970923;28;20530;-79
2022/08/28 08:16:20;;;;;;;9.25;4.90;;;;;;;;;;4956537;29;20035;-76
2022/08/28 08:18:46;;;;;;;9.75;4.63;;;;;;;;;;4921375;29;20050;-77
2022/08/28 08:21:12;;;;;;;7.97;4.63;;;;;;;;;;4934572;29;20031;-78
2022/08/28 08:23:38;;;;;;;9.77;4.43;;;;;;;;;;4957841;28;20102;-78
2022/08/28 08:26:05;;;;;;;9.90;4.88;;;;;;;;;;4957488;29;20045;-80
2022/08/28 08:28:33;;;;;;;7.88;4.55;;;;;;;;;;4957648;28;20058;-76
2022/08/28 08:31:03;;;;;;;7.97;4.75;;;;;;;;;;4949603;29;20398;-77
2022/08/28 08:33:29;;;;;;;10.77;4.28;;;;;;;;;;4956306;29;20097;-78
2022/08/28 08:35:54;;;;;;;9.80;4.45;;;;;;;;;;4957635;29;20066;-78
2022/08/28 08:38:20;;;;;;;9.13;4.00;;;;;;;;;;4956590;29;20024;-76
2022/08/28 08:40:45;;;;;;;7.47;4.20;;;;;;;;;;4940042;29;20035;-78
2022/08/28 08:43:12;;;;;;;9.23;3.97;;;;;;;;;;4954278;29;20070;-78
2022/08/28 08:45:37;;;;;;;10.77;4.25;;;;;;;;;;4928028;29;20127;-81
2022/08/28 08:48:03;;;;;;;7.80;4.78;;;;;;;;;;4936638;29;20126;-78
2022/08/28 08:50:54;;;;;;;10.23;4.45;;;;;;;;;;4935406;29;20459;-78
2022/08/28 08:53:39;;;;;;;10.52;4.80;;;;;;;;;;4934211;29;20058;-79
2022/08/28 08:56:05;;;;;;;9.00;4.30;;;;;;;;;;4951979;29;20154;-77
2022/08/28 08:58:32;;;;;;;9.13;4.07;;;;;;;;;;4930889;29;20118;-77
2022/08/28 09:01:02;;;;;;;8.95;4.25;;;;;;;;;;4924178;29;20514;-81
2022/08/28 09:03:37;;;;;;;6.22;3.83;;;;;;;;;;4927380;29;20453;-79
2022/08/28 09:06:04;;;;;;;9.60;4.43;;;;;;;;;;4910989;29;20031;-79
2022/08/28 09:08:31;;;;;;;11.23;5.13;;;;;;;;;;4924692;29;20351;-79
2022/08/28 09:11:01;;;;;;;7.63;3.83;;;;;;;;;;4908728;29;20040;-78
2022/08/28 09:13:37;;;;;;;8.68;4.00;;;;;;;;;;4924195;29;20084;-78
2022/08/28 09:16:03;;;;;;;15.13;4.35;;;;;;;;;;4942908;29;20078;-77
2022/08/28 09:18:30;;;;;;;7.47;4.32;;;;;;;;;;4943143;29;20067;-78
2022/08/28 09:20:57;;;;;;;8.18;4.05;;;;;;;;;;4905842;29;20028;-78
2022/08/28 09:23:22;;;;;;;8.65;4.22;;;;;;;;;;4939080;29;20034;-80
2022/08/28 09:25:53;;;;;;;8.00;4.30;;;;;;;;;;4940887;29;20036;-78
2022/08/28 09:28:18;;;;;;;7.07;3.90;;;;;;;;;;4902263;29;20032;-77
2022/08/28 09:30:44;;;;;;;9.45;4.10;;;;;;;;;;4907276;29;20032;-79
2022/08/28 09:33:10;;;;;;;11.50;3.60;;;;;;;;;;4902520;29;20030;-79
2022/08/28 09:35:38;;;;;;;7.95;4.20;;;;;;;;;;4920163;29;20122;-76
2022/08/28 09:38:24;;;;;;;8.50;3.90;;;;;;;;;;4924053;29;20482;-79
2022/08/28 09:43:35;;;;;;;8.15;3.88;;;;;;;;;;4930950;29;20047;-79
2022/08/28 09:46:04;;;;;;;11.13;3.95;;;;;;;;;;4939402;29;20043;-79
2022/08/28 09:48:32;;;;;;;9.20;3.97;;;;;;;;;;4940439;29;20042;-81
2022/08/28 09:51:02;;;;;;;8.48;3.53;;;;;;;;;;4940662;29;20577;-82
2022/08/28 09:53:29;;;;;;;4.88;3.60;;;;;;;;;;4924141;29;20114;-81
2022/08/28 09:56:15;;;;;;;8.70;4.43;;;;;;;;;;4904889;28;20141;-81
2022/08/28 09:58:55;;;;;;;10.23;3.97;;;;;;;;;;4925715;29;20039;-81
2022/08/28 10:01:26;;;;;;;11.13;3.85;;;;;;;;;;4919393;29;20036;-81
2022/08/28 10:03:55;;;;;;;10.20;3.92;;;;;;;;;;4961516;28;20027;-80
2022/08/28 10:06:25;;;;;;;8.32;4.00;;;;;;;;;;4941982;28;20398;-80
2022/08/28 10:08:58;;;;;;;7.65;4.43;;;;;;;;;;4941997;29;20040;-81
2022/08/28 10:11:43;;;;;;;13.93;4.88;;;;;;;;;;4924319;28;20043;-84
2022/08/28 10:14:15;;;;;;;10.77;3.85;;;;;;;;;;4952586;28;20055;-84
2022/08/28 10:16:45;;;;;;;13.98;4.38;;;;;;;;;;4943140;29;20130;-82
2022/08/28 10:19:20;;;;;;;7.20;3.30;;;;;;;;;;4926526;28;20388;-82
2022/08/28 10:21:49;;;;;;;10.47;4.00;;;;;;;;;;4936714;29;20035;-82
2022/08/28 10:24:18;;;;;;;7.07;3.63;;;;;;;;;;4916170;29;20087;-79
2022/08/28 10:26:51;;;;;;;8.45;3.90;;;;;;;;;;4946039;29;20042;-81
2022/08/28 10:29:17;;;;;;;7.20;3.72;;;;;;;;;;4924208;29;20042;-81
2022/08/28 10:31:42;;;;;;;5.35;3.47;;;;;;;;;;4938298;29;20040;-82
2022/08/28 10:34:13;;;;;;;9.20;4.32;;;;;;;;;;4940350;29;20039;-82
2022/08/28 10:36:39;;;;;;;10.20;3.92;;;;;;;;;;4939516;29;20048;-81
2022/08/28 10:39:13;;;;;;;9.25;3.55;;;;;;;;;;4939266;29;20091;-80
2022/08/28 10:41:47;;;;;;;9.52;3.92;;;;;;;;;;4954802;28;20031;-82
2022/08/28 10:44:14;;;;;;;10.73;3.80;;;;;;;;;;4945881;29;20082;-80
2022/08/28 10:46:41;;;;;;;9.32;3.63;;;;;;;;;;4934078;29;20027;-85
2022/08/28 10:49:08;;;;;;;8.77;3.28;;;;;;;;;;4918608;28;20031;-81
2022/08/28 10:51:35;;;;;;;12.73;3.90;;;;;;;;;;4939856;29;20030;-80
2022/08/28 10:54:03;;;;;;;7.20;3.83;;;;;;;;;;4922119;29;20043;-80
2022/08/28 10:56:35;;;;;;;9.48;3.90;;;;;;;;;;4935988;29;20053;-82
2022/08/28 10:59:01;;;;;;;11.18;3.50;;;;;;;;;;4908412;29;20036;-82
2022/08/28 11:01:29;;;;;;;7.30;3.13;;;;;;;;;;4927479;29;20045;-83
2022/08/28 11:03:55;;;;;;;8.82;3.50;;;;;;;;;;4961893;29;20035;-83
2022/08/28 11:06:33;;;;;;;10.93;4.18;;;;;;;;;;4948397;29;20027;-82
2022/08/28 11:09:23;;;;;;;13.80;3.95;;;;;;;;;;4931882;29;20069;-82
2022/08/28 11:11:45;;;;;;;9.25;3.60;;;;;;;;;;4957723;28;20505;-83
2022/08/28 11:14:44;;;;;;;11.80;4.40;;;;;;;;;;4951428;29;20106;-83
2022/08/28 11:17:31;;;;;;;11.63;4.40;;;;;;;;;;4905192;29;20055;-80
2022/08/28 11:20:02;;;;;;;9.27;4.10;;;;;;;;;;4956640;28;20043;-82
2022/08/28 11:22:47;;;;;;;15.70;5.03;;;;;;;;;;4940571;29;20383;-83
2022/08/28 11:25:16;;;;;;;10.95;4.32;;;;;;;;;;4936712;29;20039;-82
2022/08/28 11:28:01;;;;;;;9.75;4.03;;;;;;;;;;4941239;29;20023;-82
2022/08/28 11:30:29;;;;;;;16.85;5.03;;;;;;;;;;4951483;29;20100;-82
2022/08/28 11:32:56;;;;;;;10.25;4.20;;;;;;;;;;4940551;29;20042;-81
2022/08/28 11:35:39;;;;;;;16.20;4.50;;;;;;;;;;4924442;29;20036;-80
2022/08/28 11:38:04;;;;;;;11.20;4.55;;;;;;;;;;4940992;29;20411;-79
2022/08/28 11:40:31;;;;;;;12.65;4.70;;;;;;;;;;4940893;29;20036;-81
2022/08/28 11:43:29;;;;;;;12.50;4.00;;;;;;;;;;4960697;29;20129;-82
2022/08/28 11:45:55;;;;;;;10.43;4.95;;;;;;;;;;4909139;29;20043;-83
2022/08/28 11:48:23;;;;;;;9.60;4.53;;;;;;;;;;4928607;29;20046;-81
2022/08/28 11:50:53;;;;;;;14.18;4.97;;;;;;;;;;4932105;29;20544;-82
2022/08/28 11:53:28;;;;;;;10.38;4.38;;;;;;;;;;4926763;29;20038;-80
2022/08/28 11:56:03;;;;;;;9.20;4.25;;;;;;;;;;4943501;28;20043;-86
2022/08/28 11:58:38;;;;;;;11.45;4.63;;;;;;;;;;4925825;29;20036;-81
2022/08/28 12:01:07;;;;;;;17.52;4.80;;;;;;;;;;4932237;29;20047;-81
2022/08/28 12:03:43;;;;;;;17.42;5.20;;;;;;;;;;4938582;29;20035;-81
2022/08/28 12:06:09;;;;;;;;;;;;;;;;;;4939474;29;20395;-85
2022/08/28 12:08:44;;;;;;;11.82;4.32;;;;;;;;;;4940445;29;19911;-81
2022/08/28 12:11:10;;;;;;;11.68;4.35;;;;;;;;;;4926647;28;20039;-82
2022/08/28 12:13:45;;;;;;;11.27;4.63;;;;;;;;;;4924377;29;20095;-80
2022/08/28 12:16:11;;;;;;;9.15;4.65;;;;;;;;;;4940984;29;20043;-81
2022/08/28 12:18:41;;;;;;;12.27;4.60;;;;;;;;;;4956900;29;20482;-82
2022/08/28 12:21:16;;;;;;;14.18;4.78;;;;;;;;;;4957780;29;20027;-83
2022/08/28 12:23:59;;;;;;;9.63;4.68;;;;;;;;;;4926602;29;20027;-84
2022/08/28 12:26:29;;;;;;;10.75;4.25;;;;;;;;;;4937614;29;20048;-83
2022/08/28 12:28:57;;;;;;;10.68;4.70;;;;;;;;;;4935361;29;20039;-81
2022/08/28 12:34:27;;;;;;;8.68;3.88;;;;;;;;;;4958528;28;20062;-84
2022/08/28 12:36:54;;;;;;;7.97;4.20;;;;;;;;;;4943986;28;20043;-83
2022/08/28 12:39:20;;;;;;;16.65;4.47;;;;;;;;;;4961788;28;20419;-80
2022/08/28 12:41:45;;;;;;;8.60;4.03;;;;;;;;;;4960085;29;20034;-82
2022/08/28 12:44:11;;;;;;;10.05;4.43;;;;;;;;;;4941857;29;20051;-80
2022/08/28 12:46:37;;;;;;;10.95;4.00;;;;;;;;;;4923122;29;20082;-81
2022/08/28 12:49:03;;;;;;;10.13;4.10;;;;;;;;;;4924717;29;20039;-81
2022/08/28 12:51:32;;;;;;;10.85;4.30;;;;;;;;;;4928879;29;20031;-81
2022/08/28 12:54:05;;;;;;;9.80;4.28;;;;;;;;;;4952381;29;20035;-80
2022/08/28 12:56:32;;;;;;;10.32;4.03;;;;;;;;;;4928478;29;20538;-81
2022/08/28 12:59:17;;;;;;;9.35;4.43;;;;;;;;;;4934683;29;20032;-84
2022/08/28 13:01:43;;;;;;;14.68;4.18;;;;;;;;;;4942999;29;20039;-82
2022/08/28 13:04:32;;;;;;;16.67;4.40;;;;;;;;;;4926047;29;20407;-83
2022/08/28 13:07:02;;;;;;;7.90;4.07;;;;;;;;;;4941754;29;20039;-82
2022/08/28 13:09:28;;;;;;;11.68;4.75;;;;;;;;;;4929476;29;20043;-82
2022/08/28 13:11:53;;;;;;;11.43;4.40;;;;;;;;;;4916513;28;20065;-81
2022/08/28 13:14:38;;;;;;;9.07;4.00;;;;;;;;;;4945461;29;20038;-82
2022/08/28 13:17:04;;;;;;;9.85;4.20;;;;;;;;;;4927804;29;20130;-81
2022/08/28 13:19:30;;;;;;;11.15;4.32;;;;;;;;;;4942977;28;20118;-81
2022/08/28 13:22:03;;;;;;;12.95;4.43;;;;;;;;;;4940321;28;20079;-83
2022/08/28 13:24:36;;;;;;;7.88;4.15;;;;;;;;;;4932091;29;20443;-82
2022/08/28 13:27:02;;;;;;;10.48;4.50;;;;;;;;;;4939882;29;20091;-84
2022/08/28 13:29:27;;;;;;;11.93;4.90;;;;;;;;;;4946649;29;20047;-84
2022/08/28 13:31:58;;;;;;;13.73;4.57;;;;;;;;;;4948592;29;20043;-81
2022/08/28 13:34:24;;;;;;;12.45;4.60;;;;;;;;;;4928146;29;20102;-82
2022/08/28 13:36:54;;;;;;;9.15;4.53;;;;;;;;;;4943874;28;20073;-80
2022/08/28 13:39:21;;;;;;;8.07;4.75;;;;;;;;;;4931359;29;20043;-80
2022/08/28 13:41:48;;;;;;;9.40;4.72;;;;;;;;;;4943023;29;20031;-84
2022/08/28 13:44:25;;;;;;;10.57;5.05;;;;;;;;;;4937650;29;20059;-84
2022/08/28 13:46:51;;;;;;;15.63;5.68;;;;;;;;;;4947511;29;20050;-85
2022/08/28 13:49:16;;;;;;;9.82;5.38;;;;;;;;;;4917107;29;20028;-80
2022/08/28 13:51:42;;;;;;;9.82;5.72;;;;;;;;;;4944951;29;20027;-81
2022/08/28 13:54:07;;;;;;;16.95;6.53;;;;;;;;;;4940565;29;20109;-82
2022/08/28 13:56:33;;;;;;;14.60;6.38;;;;;;;;;;4924629;29;20067;-81
2022/08/28 13:58:59;;;;;;;12.18;5.55;;;;;;;;;;4938289;29;20038;-80
2022/08/28 14:03:34;;;;;;;14.15;6.22;;;;;;;;;;4921888;29;20032;-81
2022/08/28 14:04:13;;;;;;;9.82;5.70;;;;;;;;;;4936636;29;20031;-83
2022/08/28 14:06:43;;;;;;;14.00;5.53;;;;;;;;;;4923637;29;20121;-83
2022/08/28 14:09:14;;;;;;;10.68;6.43;;;;;;;;;;4940349;29;20039;-79
2022/08/28 14:11:40;;;;;;;13.10;6.00;;;;;;;;;;4941077;29;20074;-83
2022/08/28 14:14:06;;;;;;;16.83;6.25;;;;;;;;;;4940542;29;20031;-81
2022/08/28 14:16:32;;;;;;;12.18;5.93;;;;;;;;;;4924092;29;20062;-80
2022/08/28 14:19:03;;;;;;;10.93;5.55;;;;;;;;;;4946971;28;20023;-84
2022/08/28 14:21:28;;;;;;;15.50;7.05;;;;;;;;;;4943267;29;20042;-82
2022/08/28 14:23:54;;;;;;;20.00;6.47;;;;;;;;;;4924256;29;20023;-81
2022/08/28 14:26:20;;;;;;;11.73;6.32;;;;;;;;;;4940482;29;20479;-80
2022/08/28 14:28:45;;;;;;;13.27;6.03;;;;;;;;;;4921043;29;20078;-80
2022/08/28 14:31:11;;;;;;;12.75;5.78;;;;;;;;;;4955452;29;20070;-80
2022/08/28 14:33:37;;;;;;;14.00;5.65;;;;;;;;;;4926282;29;20038;-81
2022/08/28 14:36:03;;;;;;;15.43;5.35;;;;;;;;;;4918732;29;20050;-81
2022/08/28 14:38:28;;;;;;;16.90;6.63;;;;;;;;;;4939054;29;20118;-80
2022/08/28 14:40:54;;;;;;;11.48;5.32;;;;;;;;;;4907625;29;20031;-80
2022/08/28 14:43:20;;;;;;;11.43;5.25;;;;;;;;;;4938729;29;20419;-80
2022/08/28 14:45:46;;;;;;;11.73;5.75;;;;;;;;;;4935853;29;20031;-81